createdAt,value
2018-05-25T00:01:34.426Z,101480
2018-05-25T00:04:03.341Z,101478
2018-05-25T00:06:31.467Z,101472
2018-05-25T00:08:59.607Z,101479
2018-05-25T00:11:27.749Z,101485
2018-05-25T00:13:55.867Z,101483
2018-05-25T00:16:24.006Z,101486
2018-05-25T00:18:52.142Z,101482
2018-05-25T00:21:21.072Z,101480
2018-05-25T00:23:49.204Z,101488
2018-05-25T00:26:18.110Z,101486
2018-05-25T00:28:47.113Z,101476
2018-05-25T00:31:15.330Z,101484
2018-05-25T00:33:43.475Z,101486
2018-05-25T00:36:11.627Z,101478
2018-05-25T00:38:39.808Z,101484
2018-05-25T00:41:07.967Z,101479
2018-05-25T00:43:36.868Z,101485
2018-05-25T00:46:05.005Z,101486
2018-05-25T00:48:33.162Z,101481
2018-05-25T00:51:01.286Z,101481
2018-05-25T00:53:29.433Z,101477
2018-05-25T00:55:58.323Z,101477
2018-05-25T00:58:27.222Z,101471
2018-05-25T01:00:56.108Z,101477
2018-05-25T01:03:25.018Z,101471
2018-05-25T01:05:53.146Z,101480
2018-05-25T01:08:21.517Z,101472
2018-05-25T01:10:49.638Z,101467
2018-05-25T01:13:17.873Z,101474
2018-05-25T01:15:46.016Z,101474
2018-05-25T01:18:14.163Z,101469
2018-05-25T01:20:42.298Z,101476
2018-05-25T01:23:11.200Z,101469
2018-05-25T01:25:40.082Z,101462
2018-05-25T01:28:08.992Z,101465
2018-05-25T01:30:37.120Z,101468
2018-05-25T01:33:05.260Z,101469
2018-05-25T01:35:33.372Z,101468
2018-05-25T01:38:01.499Z,101474
2018-05-25T01:40:29.626Z,101465
2018-05-25T01:42:57.769Z,101467
2018-05-25T01:45:25.892Z,101467
2018-05-25T01:47:54.806Z,101469
2018-05-25T01:50:22.929Z,101475
2018-05-25T01:52:51.137Z,101467
2018-05-25T01:55:19.284Z,101472
2018-05-25T01:57:48.195Z,101464
2018-05-25T02:00:16.369Z,101467
2018-05-25T02:02:44.499Z,101467
2018-05-25T02:05:12.648Z,101468
2018-05-25T02:07:40.777Z,101466
2018-05-25T02:10:09.735Z,101456
2018-05-25T02:12:37.885Z,101457
2018-05-25T02:15:06.017Z,101457
2018-05-25T02:17:34.168Z,101462
2018-05-25T02:20:03.067Z,101464
2018-05-25T02:22:31.980Z,101458
2018-05-25T02:25:00.100Z,101456
2018-05-25T02:27:28.924Z,101451
2018-05-25T02:29:57.818Z,101448
2018-05-25T02:32:27.151Z,101446
2018-05-25T02:34:55.287Z,101450
2018-05-25T02:37:24.201Z,101457
2018-05-25T02:39:52.337Z,101458
2018-05-25T02:42:21.266Z,101458
2018-05-25T02:44:49.394Z,101459
2018-05-25T02:47:17.568Z,101453
2018-05-25T02:49:46.456Z,101453
2018-05-25T02:52:14.608Z,101450
2018-05-25T02:54:42.729Z,101452
2018-05-25T02:57:10.878Z,101451
2018-05-25T02:59:39.043Z,101453
2018-05-25T03:02:07.231Z,101458
2018-05-25T03:04:36.116Z,101454
2018-05-25T03:07:05.065Z,101451
2018-05-25T03:09:33.190Z,101451
2018-05-25T03:12:01.570Z,101461
2018-05-25T03:14:29.776Z,101448
2018-05-25T03:16:57.942Z,101451
2018-05-25T03:19:26.051Z,101442
2018-05-25T03:21:54.184Z,101448
2018-05-25T03:24:22.322Z,101451
2018-05-25T03:26:52.505Z,101444
2018-05-25T03:29:20.650Z,101441
2018-05-25T03:31:48.935Z,101444
2018-05-25T03:34:17.078Z,101449
2018-05-25T03:36:45.200Z,101455
2018-05-25T03:39:13.339Z,101449
2018-05-25T03:41:41.496Z,101459
2018-05-25T03:44:09.660Z,101453
2018-05-25T03:46:38.572Z,101455
2018-05-25T03:49:06.718Z,101463
2018-05-25T03:51:35.614Z,101460
2018-05-25T03:54:04.555Z,101458
2018-05-25T03:56:32.689Z,101456
2018-05-25T03:59:18.451Z,101450
2018-05-25T04:01:57.739Z,101453
2018-05-25T04:04:25.923Z,101450
2018-05-25T04:06:54.049Z,101449
2018-05-25T04:09:22.207Z,101452
2018-05-25T04:11:51.185Z,101448
2018-05-25T04:14:19.402Z,101453
2018-05-25T04:16:47.526Z,101455
2018-05-25T04:19:15.645Z,101453
2018-05-25T04:21:43.788Z,101462
2018-05-25T04:24:12.715Z,101457
2018-05-25T04:26:40.858Z,101451
2018-05-25T04:29:09.095Z,101453
2018-05-25T04:31:37.235Z,101453
2018-05-25T04:34:05.357Z,101457
2018-05-25T04:36:33.515Z,101454
2018-05-25T04:39:01.645Z,101456
2018-05-25T04:41:29.777Z,101444
2018-05-25T04:43:58.667Z,101453
2018-05-25T04:46:27.586Z,101459
2018-05-25T04:48:55.705Z,101443
2018-05-25T04:51:23.866Z,101438
2018-05-25T04:53:52.053Z,101445
2018-05-25T04:56:20.202Z,101441
2018-05-25T04:58:48.360Z,101442
2018-05-25T05:01:16.506Z,101440
2018-05-25T05:03:45.434Z,101446
2018-05-25T05:06:13.574Z,101442
2018-05-25T05:08:42.469Z,101443
2018-05-25T05:11:10.672Z,101444
2018-05-25T05:13:38.797Z,101456
2018-05-25T05:16:06.933Z,101450
2018-05-25T05:18:35.065Z,101446
2018-05-25T05:21:03.214Z,101449
2018-05-25T05:23:32.101Z,101452
2018-05-25T05:26:01.013Z,101452
2018-05-25T05:28:29.133Z,101453
2018-05-25T05:30:57.294Z,101440
2018-05-25T05:33:25.437Z,101446
2018-05-25T05:35:53.573Z,101448
2018-05-25T05:38:22.462Z,101438
2018-05-25T05:40:50.646Z,101443
2018-05-25T05:43:18.721Z,101447
2018-05-25T05:45:47.613Z,101456
2018-05-25T05:48:15.748Z,101450
2018-05-25T05:50:43.886Z,101447
2018-05-25T05:53:12.015Z,101449
2018-05-25T05:55:40.949Z,101448
2018-05-25T05:58:09.097Z,101454
2018-05-25T06:00:38.208Z,101455
2018-05-25T06:03:06.348Z,101455
2018-05-25T06:05:35.368Z,101457
2018-05-25T06:08:04.346Z,101457
2018-05-25T06:10:33.268Z,101458
2018-05-25T06:13:01.508Z,101458
2018-05-25T06:15:29.687Z,101460
2018-05-25T06:17:58.566Z,101462
2018-05-25T06:20:26.711Z,101466
2018-05-25T06:22:54.867Z,101463
2018-05-25T06:25:23.091Z,101473
2018-05-25T06:27:51.285Z,101466
2018-05-25T06:30:19.410Z,101467
2018-05-25T06:32:47.562Z,101466
2018-05-25T06:35:15.686Z,101476
2018-05-25T06:37:43.812Z,101470
2018-05-25T06:40:11.951Z,101480
2018-05-25T06:42:40.115Z,101474
2018-05-25T06:45:08.253Z,101478
2018-05-25T06:47:36.664Z,101479
2018-05-25T06:50:04.933Z,101481
2018-05-25T06:52:33.084Z,101482
2018-05-25T06:55:01.980Z,101487
2018-05-25T06:57:30.962Z,101480
2018-05-25T06:59:59.107Z,101483
2018-05-25T07:02:27.345Z,101481
2018-05-25T07:04:55.469Z,101476
2018-05-25T07:07:23.616Z,101486
2018-05-25T07:09:51.784Z,101476
2018-05-25T07:12:19.942Z,101487
2018-05-25T07:14:48.079Z,101480
2018-05-25T07:17:16.991Z,101488
2018-05-25T07:19:45.189Z,101484
2018-05-25T07:22:13.410Z,101491
2018-05-25T07:24:41.638Z,101480
2018-05-25T07:27:09.778Z,101480
2018-05-25T07:29:38.689Z,101481
2018-05-25T07:32:06.834Z,101492
2018-05-25T07:34:35.727Z,101483
2018-05-25T07:37:03.932Z,101486
2018-05-25T07:39:32.064Z,101473
2018-05-25T07:42:00.972Z,101489
2018-05-25T07:44:29.119Z,101482
2018-05-25T07:46:58.032Z,101485
2018-05-25T08:09:02.168Z,101461
2018-05-25T08:11:30.285Z,101467
2018-05-25T08:13:58.437Z,101469
2018-05-25T08:16:26.579Z,101467
2018-05-25T08:18:54.722Z,101467
2018-05-25T08:21:22.868Z,101459
2018-05-25T08:23:51.021Z,101463
2018-05-25T08:26:19.176Z,101462
2018-05-25T08:28:47.324Z,101460
2018-05-25T08:31:15.531Z,101465
2018-05-25T08:33:43.657Z,101458
2018-05-25T08:36:11.775Z,101460
2018-05-25T08:38:39.904Z,101463
2018-05-25T08:41:08.026Z,101460
2018-05-25T08:43:53.606Z,101455
2018-05-25T08:46:21.777Z,101460
2018-05-25T08:48:50.409Z,101455
2018-05-25T08:51:20.780Z,101464
2018-05-25T08:53:49.103Z,101464
2018-05-25T08:56:18.414Z,101464
2018-05-25T08:58:51.186Z,101465
2018-05-25T09:01:19.385Z,101470
2018-05-25T09:03:48.350Z,101458
2018-05-25T09:06:16.495Z,101459
2018-05-25T09:08:44.633Z,101452
2018-05-25T09:11:12.760Z,101454
2018-05-25T09:13:40.889Z,101454
2018-05-25T09:16:09.008Z,101463
2018-05-25T09:18:37.656Z,101457
2018-05-25T09:21:05.803Z,101447
2018-05-25T09:23:33.994Z,101451
2018-05-25T09:26:02.137Z,101445
2018-05-25T09:28:30.679Z,101451
2018-05-25T09:30:59.569Z,101439
2018-05-25T09:33:27.742Z,101459
2018-05-25T09:35:55.899Z,101448
2018-05-25T09:38:24.029Z,101455
2018-05-25T09:40:52.179Z,101452
2018-05-25T09:43:20.346Z,101462
2018-05-25T09:51:51.694Z,101452
2018-05-25T09:54:26.716Z,101454
2018-05-25T09:57:00.968Z,101450
2018-05-25T09:59:29.151Z,101451
2018-05-25T10:01:57.315Z,101462
2018-05-25T10:04:25.462Z,101451
2018-05-25T10:06:53.609Z,101453
2018-05-25T10:09:21.758Z,101458
2018-05-25T10:11:50.804Z,101447
2018-05-25T10:14:19.082Z,101445
2018-05-25T10:16:47.218Z,101444
2018-05-25T10:19:16.136Z,101446
2018-05-25T10:21:44.275Z,101440
2018-05-25T10:24:12.414Z,101443
2018-05-25T10:26:40.556Z,101448
2018-05-25T10:29:10.612Z,101440
2018-05-25T10:31:38.781Z,101440
2018-05-25T10:34:06.935Z,101431
2018-05-25T10:36:35.616Z,101433
2018-05-25T10:39:03.763Z,101438
2018-05-25T10:41:31.905Z,101434
2018-05-25T10:44:01.617Z,101437
2018-05-25T10:46:30.510Z,101446
2018-05-25T10:48:59.405Z,101442
2018-05-25T10:51:28.367Z,101440
2018-05-25T10:53:56.511Z,101443
2018-05-25T10:56:24.671Z,101433
2018-05-25T10:58:52.789Z,101430
2018-05-25T11:01:20.937Z,101430
2018-05-25T11:03:49.100Z,101439
2018-05-25T11:06:17.206Z,101440
2018-05-25T11:08:45.334Z,101432
2018-05-25T11:11:14.835Z,101433
2018-05-25T11:13:43.078Z,101431
2018-05-25T11:16:11.247Z,101424
2018-05-25T11:18:40.151Z,101424
2018-05-25T11:21:09.103Z,101427
2018-05-25T11:23:37.237Z,101425
2018-05-25T11:26:05.477Z,101417
2018-05-25T11:28:33.623Z,101417
2018-05-25T11:31:02.715Z,101421
2018-05-25T11:33:35.410Z,101413
2018-05-25T11:36:04.363Z,101409
2018-05-25T11:38:32.522Z,101405
2018-05-25T11:41:00.690Z,101393
2018-05-25T11:43:28.839Z,101410
2018-05-25T11:45:57.149Z,101401
2018-05-25T11:48:25.285Z,101386
2018-05-25T11:50:53.473Z,101396
2018-05-25T11:53:22.178Z,101404
2018-05-25T11:55:50.310Z,101391
2018-05-25T11:58:19.296Z,101394
2018-05-25T12:00:48.320Z,101404
2018-05-25T12:03:16.521Z,101386
2018-05-25T12:05:44.707Z,101404
2018-05-25T12:08:12.849Z,101393
2018-05-25T12:10:40.965Z,101385
2018-05-25T12:13:09.112Z,101381
2018-05-25T12:15:37.245Z,101394
2018-05-25T12:18:05.401Z,101392
2018-05-25T12:20:34.293Z,101398
2018-05-25T12:23:03.211Z,101396
2018-05-25T12:25:31.335Z,101390
2018-05-25T12:28:00.357Z,101391
2018-05-25T12:30:29.256Z,101385
2018-05-25T12:32:57.448Z,101403
2018-05-25T12:35:25.736Z,101380
2018-05-25T12:37:53.936Z,101386
2018-05-25T12:40:26.109Z,101377
2018-05-25T12:42:54.734Z,101384
2018-05-25T12:45:28.013Z,101383
2018-05-25T12:47:56.395Z,101383
2018-05-25T12:50:24.689Z,101373
2018-05-25T12:52:52.815Z,101395
2018-05-25T12:55:20.950Z,101384
2018-05-25T12:57:49.112Z,101383
2018-05-25T13:00:17.288Z,101395
2018-05-25T13:02:46.356Z,101398
2018-05-25T13:05:42.304Z,101387
2018-05-25T13:08:16.600Z,101381
2018-05-25T13:10:44.768Z,101395
2018-05-25T13:13:14.564Z,101377
2018-05-25T13:15:43.486Z,101391
2018-05-25T13:18:11.669Z,101373
2018-05-25T13:20:39.845Z,101380
2018-05-25T13:23:08.035Z,101376
2018-05-25T13:25:36.252Z,101385
2018-05-25T13:28:05.467Z,101390
2018-05-25T13:30:33.673Z,101379
2018-05-25T13:33:01.994Z,101387
2018-05-25T13:35:31.029Z,101385
2018-05-25T13:37:59.191Z,101373
2018-05-25T13:40:27.314Z,101382
2018-05-25T13:42:55.451Z,101397
2018-05-25T13:45:23.602Z,101386
2018-05-25T13:47:51.867Z,101382
2018-05-25T13:50:19.991Z,101374
2018-05-25T13:52:48.138Z,101390
2018-05-25T13:55:16.299Z,101381
2018-05-25T13:57:44.866Z,101373
2018-05-25T14:00:13.029Z,101372
2018-05-25T14:02:41.924Z,101387
2018-05-25T14:05:10.068Z,101373
2018-05-25T14:07:38.682Z,101375
2018-05-25T14:10:06.960Z,101378
2018-05-25T14:12:35.890Z,101371
2018-05-25T14:15:05.678Z,101380
2018-05-25T14:17:34.584Z,101372
2018-05-25T14:20:02.747Z,101361
2018-05-25T14:22:37.755Z,101377
2018-05-25T14:25:08.988Z,101378
2018-05-25T14:30:20.228Z,101376
2018-05-25T14:32:48.362Z,101384
2018-05-25T14:35:17.294Z,101395
2018-05-25T14:37:46.112Z,101385
2018-05-25T14:40:14.272Z,101384
2018-05-25T14:42:42.436Z,101389
2018-05-25T14:45:10.582Z,101381
2018-05-25T14:47:38.708Z,101379
2018-05-25T14:50:06.879Z,101395
2018-05-25T14:52:35.035Z,101378
2018-05-25T14:55:03.146Z,101383
2018-05-25T14:57:32.066Z,101386
2018-05-25T15:00:00.215Z,101389
2018-05-25T15:02:28.415Z,101391
2018-05-25T15:04:56.588Z,101382
2018-05-25T15:07:24.732Z,101379
2018-05-25T15:09:52.929Z,101371
2018-05-25T15:12:21.431Z,101383
2018-05-25T15:14:49.647Z,101398
2018-05-25T15:17:17.826Z,101375
2018-05-25T15:19:46.914Z,101376
2018-05-25T15:22:15.070Z,101388
2018-05-25T15:24:43.276Z,101376
2018-05-25T15:27:11.398Z,101389
2018-05-25T15:29:39.571Z,101397
2018-05-25T15:32:07.727Z,101390
2018-05-25T15:34:35.928Z,101390
2018-05-25T15:37:04.178Z,101390
2018-05-25T15:39:32.359Z,101386
2018-05-25T15:42:00.606Z,101375
2018-05-25T15:44:28.741Z,101383
2018-05-25T15:46:57.722Z,101386
2018-05-25T15:49:26.880Z,101376
2018-05-25T15:51:55.061Z,101374
2018-05-25T15:56:57.817Z,101381
2018-05-25T15:59:27.015Z,101388
2018-05-25T16:01:56.166Z,101383
2018-05-25T16:04:24.441Z,101390
2018-05-25T16:06:52.762Z,101384
2018-05-25T16:09:20.890Z,101384
2018-05-25T16:11:49.100Z,101395
2018-05-25T16:14:18.009Z,101388
2018-05-25T16:16:46.159Z,101390
2018-05-25T16:19:18.348Z,101394
2018-05-25T16:21:46.524Z,101386
2018-05-25T16:24:14.663Z,101395
2018-05-25T16:26:42.807Z,101398
2018-05-25T16:29:10.944Z,101393
2018-05-25T16:31:39.070Z,101405
2018-05-25T16:34:07.250Z,101400
2018-05-25T16:36:36.145Z,101392
2018-05-25T16:39:04.359Z,101397
2018-05-25T16:41:32.508Z,101396
2018-05-25T16:44:01.105Z,101406
2018-05-25T16:46:29.275Z,101400
2018-05-25T16:48:57.427Z,101400
2018-05-25T16:51:26.336Z,101399
2018-05-25T16:53:54.680Z,101400
2018-05-25T16:56:22.858Z,101403
2018-05-25T16:58:51.017Z,101408
2018-05-25T17:01:19.922Z,101411
2018-05-25T17:03:48.862Z,101420
2018-05-25T17:06:17.002Z,101412
2018-05-25T17:08:45.177Z,101422
2018-05-25T17:11:13.369Z,101422
2018-05-25T17:13:41.540Z,101418
2018-05-25T17:16:10.171Z,101422
2018-05-25T17:18:39.192Z,101415
2018-05-25T17:21:07.559Z,101418
2018-05-25T17:23:36.495Z,101425
2018-05-25T17:26:04.722Z,101415
2018-05-25T17:28:33.736Z,101408
2018-05-25T17:31:01.991Z,101410
2018-05-25T17:33:30.138Z,101415
2018-05-25T17:35:58.281Z,101407
2018-05-25T17:38:26.553Z,101294
2018-05-25T17:40:54.724Z,101398
2018-05-25T17:43:22.988Z,101402
2018-05-25T17:45:51.339Z,101400
2018-05-25T17:48:20.424Z,101405
2018-05-25T17:50:51.026Z,101411
2018-05-25T17:53:21.768Z,101414
2018-05-25T17:55:49.965Z,101417
2018-05-25T17:58:18.135Z,101419
2018-05-25T18:00:46.389Z,101418
2018-05-25T18:03:15.330Z,101419
2018-05-25T18:05:43.601Z,101443
2018-05-25T18:08:12.030Z,101427
2018-05-25T18:10:41.946Z,101417
2018-05-25T18:13:10.091Z,101407
2018-05-25T18:15:38.262Z,101415
2018-05-25T18:18:06.458Z,101417
2018-05-25T18:20:34.879Z,101416
2018-05-25T18:23:04.026Z,101415
2018-05-25T18:25:34.121Z,101420
2018-05-25T18:28:02.270Z,101421
2018-05-25T18:30:31.234Z,101428
2018-05-25T18:32:59.378Z,101426
2018-05-25T18:35:27.590Z,101432
2018-05-25T18:37:56.509Z,101423
2018-05-25T18:40:24.680Z,101425
2018-05-25T18:42:53.082Z,101431
2018-05-25T18:45:21.317Z,101431
2018-05-25T18:47:50.867Z,101444
2018-05-25T18:50:19.060Z,101432
2018-05-25T18:52:47.268Z,101437
2018-05-25T18:55:16.169Z,101448
2018-05-25T18:57:44.320Z,101447
2018-05-25T19:00:12.463Z,101456
2018-05-25T19:02:40.596Z,101454
2018-05-25T19:05:08.963Z,101454
2018-05-25T19:07:37.919Z,101451
2018-05-25T19:10:06.145Z,101460
2018-05-25T19:12:34.299Z,101458
2018-05-25T19:15:03.408Z,101453
2018-05-25T19:17:31.607Z,101453
2018-05-25T19:19:59.935Z,101452
2018-05-25T19:22:28.149Z,101458
2018-05-25T19:24:56.780Z,101453
2018-05-25T19:27:25.755Z,101460
2018-05-25T19:29:53.943Z,101464
2018-05-25T19:32:22.185Z,101473
2018-05-25T19:34:50.262Z,101481
2018-05-25T19:37:18.398Z,101474
2018-05-25T19:39:46.545Z,101476
2018-05-25T19:42:15.481Z,101488
2018-05-25T19:44:43.640Z,101479
2018-05-25T19:47:11.821Z,101483
2018-05-25T19:49:39.985Z,101478
2018-05-25T19:52:08.248Z,101529
2018-05-25T19:54:37.223Z,101483
2018-05-25T19:57:06.230Z,101491
2018-05-25T19:59:34.431Z,101481
2018-05-25T20:02:02.645Z,101481
2018-05-25T20:04:30.843Z,101488
2018-05-25T20:06:59.750Z,101487
2018-05-25T20:09:27.912Z,101487
2018-05-25T20:11:56.122Z,101491
2018-05-25T20:14:24.287Z,101492
2018-05-25T20:16:52.737Z,101489
2018-05-25T20:19:21.803Z,101495
2018-05-25T20:21:49.935Z,101480
2018-05-25T20:24:18.236Z,101486
2018-05-25T20:26:46.426Z,101488
2018-05-25T20:29:14.609Z,101489
2018-05-25T20:31:43.620Z,101491
2018-05-25T20:34:11.837Z,101488
2018-05-25T20:36:40.076Z,101482
2018-05-25T20:39:12.360Z,101496
2018-05-25T20:41:40.604Z,101500
2018-05-25T20:44:09.602Z,101495
2018-05-25T20:46:37.816Z,101501
2018-05-25T20:49:05.977Z,101501
2018-05-25T20:51:34.138Z,101498
2018-05-25T20:54:02.398Z,101499
2018-05-25T20:56:30.675Z,101502
2018-05-25T20:58:58.927Z,101511
2018-05-25T21:01:27.286Z,101499
2018-05-25T21:03:55.529Z,101505
2018-05-25T21:06:23.799Z,101506
2018-05-25T21:08:53.074Z,101510
2018-05-25T21:11:22.143Z,101515
2018-05-25T21:13:51.063Z,101520
2018-05-25T21:16:20.001Z,101525
2018-05-25T21:18:48.165Z,101519
2018-05-25T21:21:16.621Z,101526
2018-05-25T21:23:44.868Z,101523
2018-05-25T21:26:14.002Z,101532
2018-05-25T21:28:42.427Z,101522
2018-05-25T21:31:10.627Z,101526
2018-05-25T21:33:38.829Z,101525
2018-05-25T21:36:06.976Z,101530
2018-05-25T21:38:35.105Z,101526
2018-05-25T21:41:03.807Z,101532
2018-05-25T21:43:32.703Z,101525
2018-05-25T21:46:00.896Z,101530
2018-05-25T21:48:29.086Z,101536
2018-05-25T21:50:57.217Z,101536
2018-05-25T21:53:26.145Z,101525
2018-05-25T21:55:54.523Z,101527
2018-05-25T21:58:22.657Z,101521
2018-05-25T22:00:50.920Z,101527
2018-05-25T22:03:19.063Z,101526
2018-05-25T22:05:47.224Z,101528
2018-05-25T22:08:15.428Z,101524
2018-05-25T22:10:43.586Z,101531
2018-05-25T22:13:11.714Z,101534
2018-05-25T22:15:40.621Z,101529
2018-05-25T22:18:08.901Z,101528
2018-05-25T22:20:37.027Z,101529
2018-05-25T22:23:05.225Z,101527
2018-05-25T22:25:34.772Z,101527
2018-05-25T22:28:02.917Z,101537
2018-05-25T22:30:31.073Z,101534
2018-05-25T22:32:59.966Z,101529
2018-05-25T22:35:28.131Z,101534
2018-05-25T22:37:57.042Z,101532
2018-05-25T22:40:25.222Z,101536
2018-05-25T22:43:11.926Z,101529
2018-05-25T22:45:57.800Z,101530
2018-05-25T22:48:43.790Z,101534
2018-05-25T22:51:29.891Z,101528
2018-05-25T22:54:02.803Z,101544
2018-05-25T22:56:31.742Z,101534
2018-05-25T22:59:00.715Z,101547
2018-05-25T23:01:28.873Z,101556
2018-05-25T23:03:56.992Z,101553
2018-05-25T23:06:25.143Z,101559
2018-05-25T23:08:54.202Z,101554
2018-05-25T23:11:22.351Z,101557
2018-05-25T23:13:50.554Z,101560
2018-05-25T23:16:19.515Z,101552
2018-05-25T23:18:47.636Z,101550
2018-05-25T23:21:16.320Z,101547
2018-05-25T23:23:44.469Z,101545
2018-05-25T23:26:13.402Z,101541
2018-05-25T23:28:42.309Z,101534
2018-05-25T23:31:10.503Z,101480
2018-05-25T23:33:38.662Z,101532
2018-05-25T23:36:06.823Z,101541
2018-05-25T23:38:35.767Z,101538
2018-05-25T23:41:04.732Z,101528
2018-05-25T23:43:33.650Z,101519
2018-05-25T23:46:01.836Z,101525
2018-05-25T23:48:29.966Z,101522
2018-05-25T23:50:58.147Z,101526
2018-05-25T23:53:26.313Z,101524
2018-05-25T23:55:54.481Z,101521
2018-05-25T23:58:22.646Z,101521
